sensor_id;sensor_type;location;lat;lon;timestamp;temperature;humidity
23839;DHT22;12100;44.384;20.272;2022-10-16T00:00:34;11.60;90.10
23839;DHT22;12100;44.384;20.272;2022-10-16T00:03:00;11.50;90.10
23839;DHT22;12100;44.384;20.272;2022-10-16T00:05:26;11.50;90.30
23839;DHT22;12100;44.384;20.272;2022-10-16T00:07:52;11.50;90.30
23839;DHT22;12100;44.384;20.272;2022-10-16T00:10:18;11.50;90.50
23839;DHT22;12100;44.384;20.272;2022-10-16T00:12:44;11.40;90.60
23839;DHT22;12100;44.384;20.272;2022-10-16T00:15:10;11.40;90.60
23839;DHT22;12100;44.384;20.272;2022-10-16T00:17:35;11.50;90.70
23839;DHT22;12100;44.384;20.272;2022-10-16T00:20:02;11.50;90.60
23839;DHT22;12100;44.384;20.272;2022-10-16T00:22:28;11.50;90.60
23839;DHT22;12100;44.384;20.272;2022-10-16T00:24:54;11.50;90.70
23839;DHT22;12100;44.384;20.272;2022-10-16T00:27:20;11.50;90.90
23839;DHT22;12100;44.384;20.272;2022-10-16T00:29:50;11.50;90.80
23839;DHT22;12100;44.384;20.272;2022-10-16T00:32:17;11.50;90.70
23839;DHT22;12100;44.384;20.272;2022-10-16T00:34:43;11.50;90.60
23839;DHT22;12100;44.384;20.272;2022-10-16T00:37:09;11.50;90.80
23839;DHT22;12100;44.384;20.272;2022-10-16T00:39:35;11.50;91.00
23839;DHT22;12100;44.384;20.272;2022-10-16T00:42:00;11.50;90.90
23839;DHT22;12100;44.384;20.272;2022-10-16T00:44:51;11.50;91.30
23839;DHT22;12100;44.384;20.272;2022-10-16T00:47:32;11.50;91.20
23839;DHT22;12100;44.384;20.272;2022-10-16T00:52:48;11.50;90.70
23839;DHT22;12100;44.384;20.272;2022-10-16T00:55:15;11.60;90.90
23839;DHT22;12100;44.384;20.272;2022-10-16T00:57:42;11.60;91.00
23839;DHT22;12100;44.384;20.272;2022-10-16T01:00:12;11.60;90.90
23839;DHT22;12100;44.384;20.272;2022-10-16T01:02:38;11.60;90.70
23839;DHT22;12100;44.384;20.272;2022-10-16T01:05:05;11.60;91.20
23839;DHT22;12100;44.384;20.272;2022-10-16T01:10:17;11.60;90.80
23839;DHT22;12100;44.384;20.272;2022-10-16T01:12:59;11.70;90.60
23839;DHT22;12100;44.384;20.272;2022-10-16T01:15:54;11.70;91.00
23839;DHT22;12100;44.384;20.272;2022-10-16T01:18:37;11.70;90.60
23839;DHT22;12100;44.384;20.272;2022-10-16T01:21:08;11.70;90.60
23839;DHT22;12100;44.384;20.272;2022-10-16T01:31:18;11.70;90.90
23839;DHT22;12100;44.384;20.272;2022-10-16T01:33:48;11.70;90.80
23839;DHT22;12100;44.384;20.272;2022-10-16T01:36:21;11.70;90.80
23839;DHT22;12100;44.384;20.272;2022-10-16T01:38:50;11.80;90.90
23839;DHT22;12100;44.384;20.272;2022-10-16T01:41:38;11.80;90.90
23839;DHT22;12100;44.384;20.272;2022-10-16T01:44:23;11.80;90.90
23839;DHT22;12100;44.384;20.272;2022-10-16T01:46:52;11.90;91.20
23839;DHT22;12100;44.384;20.272;2022-10-16T01:49:21;11.80;90.80
23839;DHT22;12100;44.384;20.272;2022-10-16T01:51:52;11.90;91.00
23839;DHT22;12100;44.384;20.272;2022-10-16T01:54:20;11.90;91.00
23839;DHT22;12100;44.384;20.272;2022-10-16T01:56:50;11.90;91.00
23839;DHT22;12100;44.384;20.272;2022-10-16T01:59:20;11.90;90.70
23839;DHT22;12100;44.384;20.272;2022-10-16T02:01:53;12.00;90.70
23839;DHT22;12100;44.384;20.272;2022-10-16T02:04:38;11.90;90.80
23839;DHT22;12100;44.384;20.272;2022-10-16T02:07:05;11.90;90.60
23839;DHT22;12100;44.384;20.272;2022-10-16T02:09:33;11.90;90.60
23839;DHT22;12100;44.384;20.272;2022-10-16T02:12:03;11.90;90.40
23839;DHT22;12100;44.384;20.272;2022-10-16T02:14:32;11.90;90.60
23839;DHT22;12100;44.384;20.272;2022-10-16T02:16:58;11.90;90.70
23839;DHT22;12100;44.384;20.272;2022-10-16T02:19:24;12.00;91.20
23839;DHT22;12100;44.384;20.272;2022-10-16T02:24:42;11.80;90.90
23839;DHT22;12100;44.384;20.272;2022-10-16T02:30:54;11.80;91.20
23839;DHT22;12100;44.384;20.272;2022-10-16T02:33:02;11.80;91.30
23839;DHT22;12100;44.384;20.272;2022-10-16T02:35:30;11.70;91.40
23839;DHT22;12100;44.384;20.272;2022-10-16T02:37:57;11.60;91.40
23839;DHT22;12100;44.384;20.272;2022-10-16T02:40:24;11.60;91.60
23839;DHT22;12100;44.384;20.272;2022-10-16T02:42:52;11.60;91.60
23839;DHT22;12100;44.384;20.272;2022-10-16T02:45:18;11.60;91.70
23839;DHT22;12100;44.384;20.272;2022-10-16T02:47:44;11.60;91.90
23839;DHT22;12100;44.384;20.272;2022-10-16T02:50:10;11.60;91.80
23839;DHT22;12100;44.384;20.272;2022-10-16T02:52:36;11.60;91.80
23839;DHT22;12100;44.384;20.272;2022-10-16T02:55:02;11.60;91.90
23839;DHT22;12100;44.384;20.272;2022-10-16T02:57:28;11.60;92.10
23839;DHT22;12100;44.384;20.272;2022-10-16T02:59:54;11.50;91.90
23839;DHT22;12100;44.384;20.272;2022-10-16T03:02:19;11.50;92.10
23839;DHT22;12100;44.384;20.272;2022-10-16T03:04:45;11.50;92.10
23839;DHT22;12100;44.384;20.272;2022-10-16T03:07:11;11.50;92.20
23839;DHT22;12100;44.384;20.272;2022-10-16T03:09:37;11.50;92.30
23839;DHT22;12100;44.384;20.272;2022-10-16T03:12:03;11.40;92.70
23839;DHT22;12100;44.384;20.272;2022-10-16T03:14:29;11.40;92.70
23839;DHT22;12100;44.384;20.272;2022-10-16T03:16:54;11.40;92.70
23839;DHT22;12100;44.384;20.272;2022-10-16T03:19:20;11.40;92.70
23839;DHT22;12100;44.384;20.272;2022-10-16T03:21:46;11.30;93.00
23839;DHT22;12100;44.384;20.272;2022-10-16T03:24:12;11.30;93.10
23839;DHT22;12100;44.384;20.272;2022-10-16T03:26:38;11.20;93.10
23839;DHT22;12100;44.384;20.272;2022-10-16T03:29:04;11.30;93.10
23839;DHT22;12100;44.384;20.272;2022-10-16T03:31:30;11.20;93.10
23839;DHT22;12100;44.384;20.272;2022-10-16T03:33:56;11.20;93.20
23839;DHT22;12100;44.384;20.272;2022-10-16T03:36:22;11.20;93.10
23839;DHT22;12100;44.384;20.272;2022-10-16T03:38:48;11.20;93.30
23839;DHT22;12100;44.384;20.272;2022-10-16T03:41:14;11.20;93.10
23839;DHT22;12100;44.384;20.272;2022-10-16T03:43:39;11.20;93.20
23839;DHT22;12100;44.384;20.272;2022-10-16T03:46:06;11.10;93.30
23839;DHT22;12100;44.384;20.272;2022-10-16T03:48:32;11.10;93.70
23839;DHT22;12100;44.384;20.272;2022-10-16T03:50:58;11.10;93.40
23839;DHT22;12100;44.384;20.272;2022-10-16T03:53:24;11.10;93.60
23839;DHT22;12100;44.384;20.272;2022-10-16T03:55:50;11.00;93.60
23839;DHT22;12100;44.384;20.272;2022-10-16T03:58:16;11.00;94.00
23839;DHT22;12100;44.384;20.272;2022-10-16T04:00:43;11.00;94.20
23839;DHT22;12100;44.384;20.272;2022-10-16T04:03:09;11.00;93.90
23839;DHT22;12100;44.384;20.272;2022-10-16T04:05:35;11.00;94.20
23839;DHT22;12100;44.384;20.272;2022-10-16T04:08:01;11.00;94.60
23839;DHT22;12100;44.384;20.272;2022-10-16T04:10:27;10.90;94.50
23839;DHT22;12100;44.384;20.272;2022-10-16T04:12:53;10.90;94.40
23839;DHT22;12100;44.384;20.272;2022-10-16T04:15:24;10.90;94.90
23839;DHT22;12100;44.384;20.272;2022-10-16T04:17:51;10.80;94.90
23839;DHT22;12100;44.384;20.272;2022-10-16T04:20:17;10.80;95.00
23839;DHT22;12100;44.384;20.272;2022-10-16T04:22:43;10.80;95.20
23839;DHT22;12100;44.384;20.272;2022-10-16T04:25:09;10.80;95.30
23839;DHT22;12100;44.384;20.272;2022-10-16T04:27:35;10.80;95.20
23839;DHT22;12100;44.384;20.272;2022-10-16T04:30:01;10.80;95.20
23839;DHT22;12100;44.384;20.272;2022-10-16T04:32:27;10.80;95.30
23839;DHT22;12100;44.384;20.272;2022-10-16T04:34:53;10.80;95.10
23839;DHT22;12100;44.384;20.272;2022-10-16T04:37:19;10.70;95.80
23839;DHT22;12100;44.384;20.272;2022-10-16T04:39:48;10.70;95.70
23839;DHT22;12100;44.384;20.272;2022-10-16T04:42:14;10.70;96.10
23839;DHT22;12100;44.384;20.272;2022-10-16T04:44:40;10.70;95.70
23839;DHT22;12100;44.384;20.272;2022-10-16T04:47:05;10.70;96.00
23839;DHT22;12100;44.384;20.272;2022-10-16T04:49:31;10.70;95.90
23839;DHT22;12100;44.384;20.272;2022-10-16T04:51:57;10.70;96.40
23839;DHT22;12100;44.384;20.272;2022-10-16T04:54:23;10.70;96.40
23839;DHT22;12100;44.384;20.272;2022-10-16T04:56:48;10.70;96.50
23839;DHT22;12100;44.384;20.272;2022-10-16T04:59:17;10.70;96.50
23839;DHT22;12100;44.384;20.272;2022-10-16T05:01:43;10.80;96.30
23839;DHT22;12100;44.384;20.272;2022-10-16T05:04:09;10.80;96.30
23839;DHT22;12100;44.384;20.272;2022-10-16T05:06:35;10.90;96.00
23839;DHT22;12100;44.384;20.272;2022-10-16T05:09:01;10.90;95.90
23839;DHT22;12100;44.384;20.272;2022-10-16T05:11:27;11.00;96.00
23839;DHT22;12100;44.384;20.272;2022-10-16T05:13:52;12.00;94.60
23839;DHT22;12100;44.384;20.272;2022-10-16T05:16:18;13.50;92.20
23839;DHT22;12100;44.384;20.272;2022-10-16T05:18:44;14.80;87.10
23839;DHT22;12100;44.384;20.272;2022-10-16T05:21:10;15.70;83.20
23839;DHT22;12100;44.384;20.272;2022-10-16T05:23:35;17.10;76.90
23839;DHT22;12100;44.384;20.272;2022-10-16T05:26:01;18.20;72.60
23839;DHT22;12100;44.384;20.272;2022-10-16T05:28:28;19.20;68.40
23839;DHT22;12100;44.384;20.272;2022-10-16T05:30:56;19.90;64.60
23839;DHT22;12100;44.384;20.272;2022-10-16T05:33:23;21.00;62.60
23839;DHT22;12100;44.384;20.272;2022-10-16T05:35:51;21.50;58.40
23839;DHT22;12100;44.384;20.272;2022-10-16T05:38:17;22.30;57.10
23839;DHT22;12100;44.384;20.272;2022-10-16T05:40:50;22.30;55.60
23839;DHT22;12100;44.384;20.272;2022-10-16T05:43:15;22.80;55.50
23839;DHT22;12100;44.384;20.272;2022-10-16T05:45:41;22.80;54.90
23839;DHT22;12100;44.384;20.272;2022-10-16T05:48:07;23.10;54.10
23839;DHT22;12100;44.384;20.272;2022-10-16T05:50:33;22.80;52.30
23839;DHT22;12100;44.384;20.272;2022-10-16T05:52:59;23.30;52.90
23839;DHT22;12100;44.384;20.272;2022-10-16T05:55:24;22.90;52.00
23839;DHT22;12100;44.384;20.272;2022-10-16T05:57:50;22.80;52.50
23839;DHT22;12100;44.384;20.272;2022-10-16T06:00:16;22.70;52.60
23839;DHT22;12100;44.384;20.272;2022-10-16T06:02:42;23.50;51.40
23839;DHT22;12100;44.384;20.272;2022-10-16T06:05:07;23.80;51.20
23839;DHT22;12100;44.384;20.272;2022-10-16T06:07:35;23.60;51.60
23839;DHT22;12100;44.384;20.272;2022-10-16T06:10:04;23.30;51.10
23839;DHT22;12100;44.384;20.272;2022-10-16T06:14:56;25.00;48.70
23839;DHT22;12100;44.384;20.272;2022-10-16T06:19:48;26.50;44.70
23839;DHT22;12100;44.384;20.272;2022-10-16T06:22:14;27.50;43.30
23839;DHT22;12100;44.384;20.272;2022-10-16T06:24:41;27.30;43.90
23839;DHT22;12100;44.384;20.272;2022-10-16T06:27:07;26.60;44.50
23839;DHT22;12100;44.384;20.272;2022-10-16T06:31:59;29.70;40.70
23839;DHT22;12100;44.384;20.272;2022-10-16T06:34:25;29.60;39.70
23839;DHT22;12100;44.384;20.272;2022-10-16T06:36:51;28.80;40.00
23839;DHT22;12100;44.384;20.272;2022-10-16T06:39:17;29.30;38.80
23839;DHT22;12100;44.384;20.272;2022-10-16T06:41:43;28.00;41.20
23839;DHT22;12100;44.384;20.272;2022-10-16T06:44:09;28.50;39.70
23839;DHT22;12100;44.384;20.272;2022-10-16T06:46:35;29.00;39.60
23839;DHT22;12100;44.384;20.272;2022-10-16T06:49:01;28.90;38.70
23839;DHT22;12100;44.384;20.272;2022-10-16T06:51:27;29.60;38.70
23839;DHT22;12100;44.384;20.272;2022-10-16T06:53:54;28.80;38.40
23839;DHT22;12100;44.384;20.272;2022-10-16T06:56:24;28.80;39.20
23839;DHT22;12100;44.384;20.272;2022-10-16T06:58:51;28.00;39.90
23839;DHT22;12100;44.384;20.272;2022-10-16T07:01:21;29.40;39.10
23839;DHT22;12100;44.384;20.272;2022-10-16T07:03:47;30.70;37.20
23839;DHT22;12100;44.384;20.272;2022-10-16T07:06:16;30.30;36.30
23839;DHT22;12100;44.384;20.272;2022-10-16T07:08:44;29.20;37.60
23839;DHT22;12100;44.384;20.272;2022-10-16T07:11:13;29.10;38.60
23839;DHT22;12100;44.384;20.272;2022-10-16T07:13:41;28.20;39.20
23839;DHT22;12100;44.384;20.272;2022-10-16T07:16:19;28.50;39.60
23839;DHT22;12100;44.384;20.272;2022-10-16T07:18:46;28.40;38.10
23839;DHT22;12100;44.384;20.272;2022-10-16T07:21:16;28.20;39.10
23839;DHT22;12100;44.384;20.272;2022-10-16T07:23:42;28.40;39.60
23839;DHT22;12100;44.384;20.272;2022-10-16T07:26:09;29.10;39.00
23839;DHT22;12100;44.384;20.272;2022-10-16T07:28:36;28.10;37.50
23839;DHT22;12100;44.384;20.272;2022-10-16T07:31:05;29.30;38.50
23839;DHT22;12100;44.384;20.272;2022-10-16T07:33:33;29.90;38.20
23839;DHT22;12100;44.384;20.272;2022-10-16T07:35:59;29.00;38.70
23839;DHT22;12100;44.384;20.272;2022-10-16T07:38:25;28.30;38.90
23839;DHT22;12100;44.384;20.272;2022-10-16T07:41:05;28.20;39.60
23839;DHT22;12100;44.384;20.272;2022-10-16T07:43:31;28.80;38.60
23839;DHT22;12100;44.384;20.272;2022-10-16T07:45:57;28.90;38.90
23839;DHT22;12100;44.384;20.272;2022-10-16T07:48:26;28.50;38.10
23839;DHT22;12100;44.384;20.272;2022-10-16T07:50:52;30.30;37.20
23839;DHT22;12100;44.384;20.272;2022-10-16T07:53:18;30.30;35.90
23839;DHT22;12100;44.384;20.272;2022-10-16T07:55:44;29.00;37.30
23839;DHT22;12100;44.384;20.272;2022-10-16T07:58:10;28.90;37.80
23839;DHT22;12100;44.384;20.272;2022-10-16T08:00:37;27.90;37.80
23839;DHT22;12100;44.384;20.272;2022-10-16T08:03:03;27.90;39.00
23839;DHT22;12100;44.384;20.272;2022-10-16T08:05:31;27.50;38.60
23839;DHT22;12100;44.384;20.272;2022-10-16T08:07:57;26.30;39.70
23839;DHT22;12100;44.384;20.272;2022-10-16T08:10:25;26.50;41.50
23839;DHT22;12100;44.384;20.272;2022-10-16T08:12:52;25.50;41.60
23839;DHT22;12100;44.384;20.272;2022-10-16T08:15:18;24.70;45.20
23839;DHT22;12100;44.384;20.272;2022-10-16T08:17:44;24.10;47.00
23839;DHT22;12100;44.384;20.272;2022-10-16T08:20:10;22.90;49.30
23839;DHT22;12100;44.384;20.272;2022-10-16T08:22:36;22.40;50.20
23839;DHT22;12100;44.384;20.272;2022-10-16T08:25:02;21.60;52.20
23839;DHT22;12100;44.384;20.272;2022-10-16T08:27:32;21.60;53.10
23839;DHT22;12100;44.384;20.272;2022-10-16T08:29:58;21.30;54.10
23839;DHT22;12100;44.384;20.272;2022-10-16T08:32:24;21.00;55.20
23839;DHT22;12100;44.384;20.272;2022-10-16T08:34:50;20.90;55.10
23839;DHT22;12100;44.384;20.272;2022-10-16T08:37:15;20.90;55.70
23839;DHT22;12100;44.384;20.272;2022-10-16T08:39:41;20.60;56.30
23839;DHT22;12100;44.384;20.272;2022-10-16T08:45:01;20.50;56.90
23839;DHT22;12100;44.384;20.272;2022-10-16T08:50:28;20.90;56.90
23839;DHT22;12100;44.384;20.272;2022-10-16T08:52:55;21.00;56.20
23839;DHT22;12100;44.384;20.272;2022-10-16T08:58:00;20.80;56.80
23839;DHT22;12100;44.384;20.272;2022-10-16T09:00:26;21.00;55.40
23839;DHT22;12100;44.384;20.272;2022-10-16T09:03:03;20.30;56.50
23839;DHT22;12100;44.384;20.272;2022-10-16T09:11:45;20.90;57.30
23839;DHT22;12100;44.384;20.272;2022-10-16T09:17:22;20.90;56.20
23839;DHT22;12100;44.384;20.272;2022-10-16T09:22:35;21.00;56.20
23839;DHT22;12100;44.384;20.272;2022-10-16T09:25:17;21.20;55.50
23839;DHT22;12100;44.384;20.272;2022-10-16T09:27:46;21.10;56.40
23839;DHT22;12100;44.384;20.272;2022-10-16T09:30:14;21.10;54.70
23839;DHT22;12100;44.384;20.272;2022-10-16T09:32:42;21.30;54.70
23839;DHT22;12100;44.384;20.272;2022-10-16T09:35:18;20.80;54.80
23839;DHT22;12100;44.384;20.272;2022-10-16T09:37:48;20.90;54.90
23839;DHT22;12100;44.384;20.272;2022-10-16T09:40:26;20.80;54.70
23839;DHT22;12100;44.384;20.272;2022-10-16T09:43:16;21.20;55.30
23839;DHT22;12100;44.384;20.272;2022-10-16T09:45:54;21.40;54.50
23839;DHT22;12100;44.384;20.272;2022-10-16T09:48:20;21.50;54.60
23839;DHT22;12100;44.384;20.272;2022-10-16T09:50:56;21.60;53.60
23839;DHT22;12100;44.384;20.272;2022-10-16T09:53:22;21.50;53.40
23839;DHT22;12100;44.384;20.272;2022-10-16T09:55:52;21.60;52.40
23839;DHT22;12100;44.384;20.272;2022-10-16T09:58:22;22.20;53.20
23839;DHT22;12100;44.384;20.272;2022-10-16T10:00:53;22.40;50.60
23839;DHT22;12100;44.384;20.272;2022-10-16T10:03:40;22.40;49.70
23839;DHT22;12100;44.384;20.272;2022-10-16T10:06:27;21.90;49.80
23839;DHT22;12100;44.384;20.272;2022-10-16T10:08:59;21.80;50.70
23839;DHT22;12100;44.384;20.272;2022-10-16T10:11:42;22.50;51.00
23839;DHT22;12100;44.384;20.272;2022-10-16T10:14:37;22.70;49.70
23839;DHT22;12100;44.384;20.272;2022-10-16T10:17:19;22.70;48.30
23839;DHT22;12100;44.384;20.272;2022-10-16T10:19:48;22.60;49.50
23839;DHT22;12100;44.384;20.272;2022-10-16T10:39:04;30.60;33.10
23839;DHT22;12100;44.384;20.272;2022-10-16T10:55:09;33.50;27.20
23839;DHT22;12100;44.384;20.272;2022-10-16T10:58:14;32.20;28.20
23839;DHT22;12100;44.384;20.272;2022-10-16T11:01:04;31.10;28.40
23839;DHT22;12100;44.384;20.272;2022-10-16T11:03:45;31.80;28.90
23839;DHT22;12100;44.384;20.272;2022-10-16T11:06:19;30.60;28.80
23839;DHT22;12100;44.384;20.272;2022-10-16T11:09:00;30.60;29.70
23839;DHT22;12100;44.384;20.272;2022-10-16T11:11:34;31.00;29.60
23839;DHT22;12100;44.384;20.272;2022-10-16T11:14:20;30.70;29.90
23839;DHT22;12100;44.384;20.272;2022-10-16T11:17:10;32.00;29.00
23839;DHT22;12100;44.384;20.272;2022-10-16T11:19:48;32.20;28.80
23839;DHT22;12100;44.384;20.272;2022-10-16T11:22:34;33.70;27.60
23839;DHT22;12100;44.384;20.272;2022-10-16T11:25:21;33.20;27.80
23839;DHT22;12100;44.384;20.272;2022-10-16T11:28:01;33.60;27.60
23839;DHT22;12100;44.384;20.272;2022-10-16T11:30:30;34.00;27.10
23839;DHT22;12100;44.384;20.272;2022-10-16T11:36:40;31.70;27.70
23839;DHT22;12100;44.384;20.272;2022-10-16T11:38:51;32.90;28.10
23839;DHT22;12100;44.384;20.272;2022-10-16T11:49:34;33.20;27.80
23839;DHT22;12100;44.384;20.272;2022-10-16T11:54:50;30.70;29.20
23839;DHT22;12100;44.384;20.272;2022-10-16T11:57:32;31.30;29.30
23839;DHT22;12100;44.384;20.272;2022-10-16T12:00:09;31.30;29.60
23839;DHT22;12100;44.384;20.272;2022-10-16T12:10:29;30.30;30.00
23839;DHT22;12100;44.384;20.272;2022-10-16T12:12:57;29.60;30.60
23839;DHT22;12100;44.384;20.272;2022-10-16T12:15:26;30.30;31.60
23839;DHT22;12100;44.384;20.272;2022-10-16T12:17:53;30.60;30.20
23839;DHT22;12100;44.384;20.272;2022-10-16T12:20:22;30.30;29.70
23839;DHT22;12100;44.384;20.272;2022-10-16T12:22:53;30.70;30.00
23839;DHT22;12100;44.384;20.272;2022-10-16T12:25:36;30.60;29.80
23839;DHT22;12100;44.384;20.272;2022-10-16T12:28:16;30.40;30.30
23839;DHT22;12100;44.384;20.272;2022-10-16T12:30:43;30.80;30.30
23839;DHT22;12100;44.384;20.272;2022-10-16T12:33:25;31.40;30.00
23839;DHT22;12100;44.384;20.272;2022-10-16T12:35:51;30.20;30.20
23839;DHT22;12100;44.384;20.272;2022-10-16T12:38:48;30.20;30.80
23839;DHT22;12100;44.384;20.272;2022-10-16T12:41:31;30.60;31.10
23839;DHT22;12100;44.384;20.272;2022-10-16T12:43:58;28.70;30.00
23839;DHT22;12100;44.384;20.272;2022-10-16T12:51:41;26.60;32.80
23839;DHT22;12100;44.384;20.272;2022-10-16T12:54:35;25.20;37.00
23839;DHT22;12100;44.384;20.272;2022-10-16T12:59:54;22.80;42.00
23839;DHT22;12100;44.384;20.272;2022-10-16T13:07:45;21.30;47.00
23839;DHT22;12100;44.384;20.272;2022-10-16T13:10:36;21.00;48.00
23839;DHT22;12100;44.384;20.272;2022-10-16T13:16:04;20.70;50.10
23839;DHT22;12100;44.384;20.272;2022-10-16T13:29:40;20.30;49.80
23839;DHT22;12100;44.384;20.272;2022-10-16T13:32:10;20.40;50.30
23839;DHT22;12100;44.384;20.272;2022-10-16T13:34:45;20.40;50.50
23839;DHT22;12100;44.384;20.272;2022-10-16T13:37:20;20.30;49.70
23839;DHT22;12100;44.384;20.272;2022-10-16T13:39:46;20.30;49.80
23839;DHT22;12100;44.384;20.272;2022-10-16T13:42:22;20.30;50.60
23839;DHT22;12100;44.384;20.272;2022-10-16T13:44:53;20.20;50.10
23839;DHT22;12100;44.384;20.272;2022-10-16T13:47:27;20.30;50.70
23839;DHT22;12100;44.384;20.272;2022-10-16T13:50:15;20.20;51.00
23839;DHT22;12100;44.384;20.272;2022-10-16T13:52:41;20.20;51.60
23839;DHT22;12100;44.384;20.272;2022-10-16T13:55:12;20.10;51.20
23839;DHT22;12100;44.384;20.272;2022-10-16T13:57:38;20.20;52.00
23839;DHT22;12100;44.384;20.272;2022-10-16T14:00:18;20.20;52.90
23839;DHT22;12100;44.384;20.272;2022-10-16T14:02:45;20.10;52.30
23839;DHT22;12100;44.384;20.272;2022-10-16T14:05:11;20.10;51.80
23839;DHT22;12100;44.384;20.272;2022-10-16T14:07:39;20.00;50.60
23839;DHT22;12100;44.384;20.272;2022-10-16T14:10:29;20.00;50.90
23839;DHT22;12100;44.384;20.272;2022-10-16T14:12:59;20.00;51.00
23839;DHT22;12100;44.384;20.272;2022-10-16T14:15:26;19.90;50.70
23839;DHT22;12100;44.384;20.272;2022-10-16T14:17:53;19.90;51.00
23839;DHT22;12100;44.384;20.272;2022-10-16T14:20:21;19.80;51.30
23839;DHT22;12100;44.384;20.272;2022-10-16T14:22:59;19.80;51.50
23839;DHT22;12100;44.384;20.272;2022-10-16T14:25:28;19.80;52.10
23839;DHT22;12100;44.384;20.272;2022-10-16T14:30:28;19.80;52.60
23839;DHT22;12100;44.384;20.272;2022-10-16T14:33:01;19.70;52.00
23839;DHT22;12100;44.384;20.272;2022-10-16T14:35:37;19.70;52.60
23839;DHT22;12100;44.384;20.272;2022-10-16T14:38:05;19.60;52.20
23839;DHT22;12100;44.384;20.272;2022-10-16T14:40:34;19.60;52.10
23839;DHT22;12100;44.384;20.272;2022-10-16T14:43:04;19.60;53.00
23839;DHT22;12100;44.384;20.272;2022-10-16T14:45:33;19.50;53.00
23839;DHT22;12100;44.384;20.272;2022-10-16T14:48:03;19.50;53.40
23839;DHT22;12100;44.384;20.272;2022-10-16T14:50:31;19.50;53.90
23839;DHT22;12100;44.384;20.272;2022-10-16T14:52:57;19.30;53.40
23839;DHT22;12100;44.384;20.272;2022-10-16T14:55:25;19.20;53.90
23839;DHT22;12100;44.384;20.272;2022-10-16T14:57:51;19.20;54.20
23839;DHT22;12100;44.384;20.272;2022-10-16T15:00:20;19.10;54.60
23839;DHT22;12100;44.384;20.272;2022-10-16T15:02:47;19.00;55.00
23839;DHT22;12100;44.384;20.272;2022-10-16T15:05:25;19.00;55.20
23839;DHT22;12100;44.384;20.272;2022-10-16T15:07:53;18.90;55.10
23839;DHT22;12100;44.384;20.272;2022-10-16T15:10:20;18.80;55.70
23839;DHT22;12100;44.384;20.272;2022-10-16T15:12:47;18.70;55.70
23839;DHT22;12100;44.384;20.272;2022-10-16T15:17:50;18.50;56.90
23839;DHT22;12100;44.384;20.272;2022-10-16T15:20:19;18.40;56.70
23839;DHT22;12100;44.384;20.272;2022-10-16T15:22:45;18.30;57.20
23839;DHT22;12100;44.384;20.272;2022-10-16T15:25:39;18.20;57.60
23839;DHT22;12100;44.384;20.272;2022-10-16T15:28:07;18.10;58.80
23839;DHT22;12100;44.384;20.272;2022-10-16T15:30:34;18.00;58.20
23839;DHT22;12100;44.384;20.272;2022-10-16T15:33:00;17.90;58.40
23839;DHT22;12100;44.384;20.272;2022-10-16T15:35:26;17.90;58.10
23839;DHT22;12100;44.384;20.272;2022-10-16T15:37:52;17.80;59.00
23839;DHT22;12100;44.384;20.272;2022-10-16T15:40:19;17.70;58.90
23839;DHT22;12100;44.384;20.272;2022-10-16T15:42:45;17.60;59.50
23839;DHT22;12100;44.384;20.272;2022-10-16T15:45:12;17.50;59.90
23839;DHT22;12100;44.384;20.272;2022-10-16T15:47:39;17.40;60.30
23839;DHT22;12100;44.384;20.272;2022-10-16T15:50:06;17.30;60.80
23839;DHT22;12100;44.384;20.272;2022-10-16T15:52:32;17.20;62.10
23839;DHT22;12100;44.384;20.272;2022-10-16T15:54:58;17.10;62.20
23839;DHT22;12100;44.384;20.272;2022-10-16T15:57:24;17.00;61.80
23839;DHT22;12100;44.384;20.272;2022-10-16T15:59:50;16.90;62.00
23839;DHT22;12100;44.384;20.272;2022-10-16T16:02:16;16.80;62.80
23839;DHT22;12100;44.384;20.272;2022-10-16T16:04:42;16.70;62.60
23839;DHT22;12100;44.384;20.272;2022-10-16T16:07:08;16.60;63.40
23839;DHT22;12100;44.384;20.272;2022-10-16T16:09:33;16.50;63.80
23839;DHT22;12100;44.384;20.272;2022-10-16T16:12:00;16.50;63.40
23839;DHT22;12100;44.384;20.272;2022-10-16T16:14:27;16.50;63.40
23839;DHT22;12100;44.384;20.272;2022-10-16T16:16:56;16.40;63.50
23839;DHT22;12100;44.384;20.272;2022-10-16T16:19:23;16.30;63.60
23839;DHT22;12100;44.384;20.272;2022-10-16T16:21:49;16.30;64.20
23839;DHT22;12100;44.384;20.272;2022-10-16T16:24:15;16.20;64.40
23839;DHT22;12100;44.384;20.272;2022-10-16T16:26:41;16.20;64.50
23839;DHT22;12100;44.384;20.272;2022-10-16T16:29:15;16.10;64.90
23839;DHT22;12100;44.384;20.272;2022-10-16T16:31:42;16.00;65.00
23839;DHT22;12100;44.384;20.272;2022-10-16T16:34:08;15.90;65.40
23839;DHT22;12100;44.384;20.272;2022-10-16T16:36:35;15.90;65.70
23839;DHT22;12100;44.384;20.272;2022-10-16T16:39:01;15.80;66.00
23839;DHT22;12100;44.384;20.272;2022-10-16T16:41:28;15.80;66.40
23839;DHT22;12100;44.384;20.272;2022-10-16T16:44:00;15.70;66.20
23839;DHT22;12100;44.384;20.272;2022-10-16T16:46:27;15.70;66.60
23839;DHT22;12100;44.384;20.272;2022-10-16T16:48:52;15.60;67.00
23839;DHT22;12100;44.384;20.272;2022-10-16T16:51:21;15.60;67.10
23839;DHT22;12100;44.384;20.272;2022-10-16T16:53:51;15.60;67.60
23839;DHT22;12100;44.384;20.272;2022-10-16T16:56:18;15.50;67.00
23839;DHT22;12100;44.384;20.272;2022-10-16T16:58:52;15.50;67.20
23839;DHT22;12100;44.384;20.272;2022-10-16T17:01:19;15.40;67.20
23839;DHT22;12100;44.384;20.272;2022-10-16T17:03:46;15.30;67.80
23839;DHT22;12100;44.384;20.272;2022-10-16T17:06:13;15.30;68.50
23839;DHT22;12100;44.384;20.272;2022-10-16T17:08:40;15.20;68.90
23839;DHT22;12100;44.384;20.272;2022-10-16T17:11:11;15.10;71.10
23839;DHT22;12100;44.384;20.272;2022-10-16T17:13:36;15.00;71.70
23839;DHT22;12100;44.384;20.272;2022-10-16T17:16:04;15.00;72.20
23839;DHT22;12100;44.384;20.272;2022-10-16T17:18:30;14.80;73.70
23839;DHT22;12100;44.384;20.272;2022-10-16T17:21:01;14.80;73.70
23839;DHT22;12100;44.384;20.272;2022-10-16T17:23:27;14.60;74.80
23839;DHT22;12100;44.384;20.272;2022-10-16T17:25:53;14.50;74.70
23839;DHT22;12100;44.384;20.272;2022-10-16T17:28:19;14.40;73.70
23839;DHT22;12100;44.384;20.272;2022-10-16T17:30:45;14.40;75.30
23839;DHT22;12100;44.384;20.272;2022-10-16T17:33:11;14.30;75.90
23839;DHT22;12100;44.384;20.272;2022-10-16T17:35:42;14.30;75.30
23839;DHT22;12100;44.384;20.272;2022-10-16T17:38:09;14.30;72.80
23839;DHT22;12100;44.384;20.272;2022-10-16T17:40:35;14.40;72.10